Historyczne dane pomiarowe

Dodano dane terminowe – wersja testowa.

Dane z okresu 1951-2019

Wersja bazy: 1.34 [2019-03-16, lista zmian], aktualizacja planowana na 2019-04-15

Dane meteo z obszaru Polski uzyskane na podstawie danych udostępnionych przez Instytut Meteorologii i Gospodarki Wodnej – Państwowy Instytut Badawczy.

 

Wybierz Datę:    

       

TemperaturaWilgotnośćWiatrCiśnienieOpadyŚniegCzas trwania zjawisk
 Stacja t tx tn tng RH VA  wxwx mslp ppp RRR   cm mm wxwxwxwxwxwxwx
1969-06-13 20.1 28.1 8.2 5.8 61.3- 1.0 1.0---- 0.0------------
1969-06-14 21.1 29.0 6.9 4.3 55.5- 1.7 1.0---- 0.0------------
1969-06-15 20.5 28.7 12.2 8.5 74.5- 3.3 1.7---- 0.9------------
1969-06-16 20.0 27.1 11.0 7.9 73.3- 2.0 1.0---- 0.0------------
1969-06-17 21.6 28.8 11.1 8.8 69.3- 2.0 3.0---- 0.0------------
1969-06-18 20.8 28.2 13.6 10.2 70.8- 2.7 1.0---- 0.0------------
1969-06-19 20.3 28.2 15.2 10.4 83.8- 7.3 0.7---- 20.4------------
1969-06-20 18.1 22.1 16.0 14.8 91.5- 8.0 4.0---- 0.0------------
1969-06-21 15.8 18.1 15.1 14.9 87.5- 8.0 5.3---- 20.4------------
1969-06-22 15.4 18.3 13.9 13.6 93.3- 7.7 2.0---- 8.1------------
1969-06-23 18.9 25.4 10.9 8.7 85.8- 2.7 0.7---- 0.0------------
1969-06-24 21.7 27.6 15.3 12.0 73.3- 4.0 3.7---- 8.2------------
1969-06-25 17.0 22.6 15.3 14.9 90.8- 7.0 1.7---- 3.7------------
1969-06-26 17.0 23.1 12.5 10.8 73.8- 1.7 2.0---- 0.0------------
1969-06-27 17.6 24.7 6.7 5.3 72.5- 0.7 1.3---- 0.0------------
1969-06-28 14.7 21.5 12.2 9.3 82.8- 7.7 2.0---- 4.0------------
1969-06-29 13.5 19.3 10.0 8.4 78.3- 3.3 4.3---- 0.7------------
1969-06-30 14.6 21.3 10.1 8.0 76.8- 3.7 2.0---- 0.0------------
1969-07-01 17.6 22.4 5.8 4.0 69.3- 4.7 2.7---- 0.0------------
1969-07-02 18.4 24.1 11.2 8.2 85.3- 7.3 2.7---- 7.4------------
1969-07-03 18.9 23.4 15.9 13.9 81.8- 7.0 2.7---- 0.0------------
1969-07-04 17.0 21.4 13.1 11.1 69.3- 5.3 1.0---- 0.0------------
1969-07-05 19.5 26.4 9.1 7.2 72.0- 2.7 1.7---- 0.0------------
1969-07-06 19.1 24.7 12.3 9.0 75.8- 7.0 1.0---- 0.0------------
1969-07-07 20.8 29.3 13.8 10.9 66.5- 7.0 4.3---- 0.7------------
1969-07-08 14.8 19.3 12.4 10.6 70.8- 7.0 3.7---- 0.9------------
1969-07-09 12.7 19.5 9.9 7.8 85.3- 6.3 0.7---- 0.6------------
1969-07-10 12.8 19.4 5.2 3.9 79.8- 4.7 1.3---- 0.0------------
1969-07-11 12.9 19.2 3.9 1.9 74.0- 2.3 2.3---- 0.0------------
1969-07-12 16.2 22.1 4.0 1.4 70.8- 3.0 2.7---- 0.0------------
180.6 ms

 

Źródłem pochodzenia danych jest Instytut Meteorologii i Gospodarki Wodnej – Państwowy Instytut Badawczy. Dane Instytutu Meteorologii i Gospodarki Wodnej – Państwowego Instytutu Badawczego zostały przetworzone.

Dane źródłowe można odnaleźć na stronie https://dane.imgw.pl